createdAt,value
2024-05-09T00:00:22.009Z,17.63
2024-05-09T00:05:19.147Z,17.23
2024-05-09T00:10:18.206Z,16.05
2024-05-09T00:15:17.966Z,16.23
2024-05-09T00:20:17.580Z,15.85
2024-05-09T00:25:16.447Z,16.57
2024-05-09T00:30:14.367Z,17.17
2024-05-09T00:35:10.036Z,16.77
2024-05-09T00:40:02.797Z,16.83
2024-05-09T00:44:55.472Z,17.48
2024-05-09T00:49:51.466Z,15.80
2024-05-09T00:54:44.081Z,16.38
2024-05-09T00:59:36.843Z,17.70
2024-05-09T01:04:29.510Z,17.45
2024-05-09T01:09:22.038Z,19.30
2024-05-09T01:14:14.433Z,17.52
2024-05-09T01:19:16.605Z,18.05
2024-05-09T01:24:08.993Z,19.97
2024-05-09T01:29:01.536Z,19.70
2024-05-09T01:33:54.019Z,19.83
2024-05-09T01:38:46.476Z,19.60
2024-05-09T01:43:38.909Z,20.05
2024-05-09T01:48:31.479Z,19.52
2024-05-09T01:53:24.070Z,18.20
2024-05-09T01:58:16.581Z,20.13
2024-05-09T02:03:14.021Z,20.20
2024-05-09T02:08:15.234Z,18.93
2024-05-09T02:13:08.103Z,19.50
2024-05-09T02:18:01.127Z,21.20
2024-05-09T02:22:55.114Z,19.70
2024-05-09T02:27:47.827Z,19.15
2024-05-09T02:32:40.531Z,18.97
2024-05-09T02:37:33.116Z,18.52
2024-05-09T02:42:27.612Z,17.77
2024-05-09T02:47:20.279Z,17.42
2024-05-09T02:52:12.869Z,17.73
2024-05-09T02:57:05.437Z,18.77
2024-05-09T03:01:58.079Z,18.20
2024-05-09T03:06:50.633Z,17.98
2024-05-09T03:11:43.099Z,16.60
2024-05-09T03:16:39.200Z,17.77
2024-05-09T03:21:31.536Z,18.45
2024-05-09T03:26:23.944Z,18.98
2024-05-09T03:31:18.942Z,18.33
2024-05-09T03:36:11.586Z,19.77
2024-05-09T03:41:04.062Z,19.90
2024-05-09T03:45:56.825Z,20.48
2024-05-09T03:50:49.371Z,20.07
2024-05-09T03:55:41.951Z,21.00
2024-05-09T04:00:38.536Z,20.13
2024-05-09T04:05:32.978Z,19.00
2024-05-09T04:10:32.455Z,20.85
2024-05-09T04:15:27.581Z,20.73
2024-05-09T04:20:29.288Z,21.10
2024-05-09T04:25:29.881Z,23.27
2024-05-09T04:30:34.266Z,22.73
2024-05-09T04:35:31.271Z,23.02
2024-05-09T04:40:31.220Z,23.37
2024-05-09T04:45:27.341Z,22.95
2024-05-09T04:50:29.317Z,23.63
2024-05-09T04:55:28.498Z,22.55
2024-05-09T05:00:28.929Z,22.85
2024-05-09T05:05:28.129Z,23.33
2024-05-09T05:10:25.524Z,23.88
2024-05-09T05:15:22.589Z,24.55
2024-05-09T05:20:17.805Z,23.88
2024-05-09T05:25:13.784Z,24.52
2024-05-09T05:30:11.791Z,24.33
2024-05-09T05:35:07.311Z,23.30
2024-05-09T05:40:00.037Z,23.15
2024-05-09T05:44:52.535Z,22.90
2024-05-09T05:49:44.996Z,24.00
2024-05-09T05:54:37.630Z,21.83
2024-05-09T05:59:30.211Z,24.20
2024-05-09T06:04:22.767Z,25.08
2024-05-09T06:09:15.248Z,23.98
2024-05-09T06:14:07.932Z,23.95
2024-05-09T06:19:02.222Z,23.77
2024-05-09T06:23:54.843Z,22.47
2024-05-09T06:28:47.591Z,23.53
2024-05-09T06:33:43.556Z,23.75
2024-05-09T06:38:38.555Z,23.58
2024-05-09T06:43:31.186Z,22.53
2024-05-09T06:48:24.796Z,23.53
2024-05-09T06:53:18.075Z,24.05
2024-05-09T06:58:10.778Z,22.92
2024-05-09T07:03:08.303Z,23.90
2024-05-09T07:08:01.098Z,23.75
2024-05-09T07:12:53.636Z,23.60
2024-05-09T07:17:46.192Z,21.55
2024-05-09T07:22:38.796Z,22.48
2024-05-09T07:27:31.382Z,21.50
2024-05-09T07:32:24.809Z,22.67
2024-05-09T07:37:17.731Z,23.55
2024-05-09T07:42:10.689Z,23.80
2024-05-09T07:48:14.182Z,25.20
2024-05-09T07:53:29.908Z,25.20
2024-05-09T07:57:28.667Z,25.17
2024-05-09T08:02:21.614Z,24.20
2024-05-09T08:07:14.242Z,23.15
2024-05-09T08:12:09.570Z,22.55
2024-05-09T08:17:04.344Z,21.43
2024-05-09T08:21:57.010Z,20.42
2024-05-09T08:26:49.686Z,19.13
2024-05-09T08:31:43.430Z,18.67
2024-05-09T08:36:36.134Z,19.42
2024-05-09T08:41:29.642Z,17.20
2024-05-09T08:46:22.951Z,13.98
2024-05-09T08:51:16.441Z,15.55
2024-05-09T08:56:12.235Z,15.77
2024-05-09T09:01:05.466Z,11.57
2024-05-09T09:06:09.024Z,13.10
2024-05-09T09:11:19.672Z,13.20
2024-05-09T09:16:13.035Z,12.30
2024-05-09T09:21:05.745Z,12.85
2024-05-09T09:26:01.597Z,12.27
2024-05-09T09:30:54.411Z,12.65
2024-05-09T09:35:46.954Z,11.75
2024-05-09T09:40:49.715Z,12.57
2024-05-09T09:45:44.755Z,11.75
2024-05-09T09:50:38.151Z,12.27
2024-05-09T09:55:33.456Z,13.18
2024-05-09T10:00:32.968Z,13.50
2024-05-09T10:05:27.183Z,12.73
2024-05-09T10:10:31.416Z,15.37
2024-05-09T10:15:27.703Z,13.02
2024-05-09T10:20:28.146Z,12.93
2024-05-09T10:25:25.323Z,13.38
2024-05-09T10:35:27.362Z,14.32
2024-05-09T10:40:26.437Z,14.27
2024-05-09T10:45:24.735Z,12.95
2024-05-09T10:50:25.740Z,14.30
2024-05-09T10:55:21.664Z,15.10
2024-05-09T11:00:23.312Z,16.35
2024-05-09T11:05:27.235Z,17.13
2024-05-09T11:10:27.414Z,18.80
2024-05-09T11:15:27.629Z,19.60
2024-05-09T11:20:29.129Z,18.35
2024-05-09T11:25:37.029Z,19.52
2024-05-09T11:30:34.851Z,20.38
2024-05-09T11:35:29.653Z,21.23
2024-05-09T11:40:28.083Z,18.35
2024-05-09T11:45:25.825Z,17.17
2024-05-09T11:50:26.618Z,17.02
2024-05-09T11:55:27.213Z,15.40
2024-05-09T12:00:29.176Z,15.17
2024-05-09T12:05:29.123Z,14.57
2024-05-09T12:10:26.262Z,16.05
2024-05-09T12:15:24.648Z,16.40
2024-05-09T12:20:25.787Z,16.93
2024-05-09T12:25:26.081Z,16.23
2024-05-09T12:30:29.073Z,14.50
2024-05-09T12:35:29.488Z,16.08
2024-05-09T12:40:30.750Z,15.13
2024-05-09T12:45:27.373Z,16.67
2024-05-09T12:50:28.799Z,15.63
2024-05-09T12:55:24.445Z,16.10
2024-05-09T13:00:23.814Z,15.70
2024-05-09T13:05:20.802Z,15.73
2024-05-09T13:10:19.830Z,15.50
2024-05-09T13:15:15.733Z,14.80
2024-05-09T13:20:14.886Z,18.02
2024-05-09T13:25:13.330Z,17.07
2024-05-09T13:30:11.854Z,14.97
2024-05-09T13:35:07.496Z,15.35
2024-05-09T13:40:01.169Z,14.53
2024-05-09T13:44:54.444Z,17.98
2024-05-09T13:49:47.784Z,17.33
2024-05-09T13:54:40.206Z,17.25
2024-05-09T13:59:32.761Z,15.90
2024-05-09T14:04:25.445Z,17.30
2024-05-09T14:09:17.991Z,15.90
2024-05-09T14:14:10.391Z,18.30
2024-05-09T14:19:03.285Z,18.08
2024-05-09T14:23:55.717Z,15.57
2024-05-09T14:28:48.123Z,14.60
2024-05-09T14:33:40.681Z,13.13
2024-05-09T14:38:33.162Z,14.65
2024-05-09T14:43:25.948Z,24.47
2024-05-09T14:48:20.208Z,21.30
2024-05-09T14:53:14.004Z,22.23
2024-05-09T14:58:07.567Z,23.58
2024-05-09T15:03:00.700Z,24.55
2024-05-09T15:07:53.659Z,24.65
2024-05-09T15:12:46.294Z,22.55
2024-05-09T15:17:41.970Z,22.60
2024-05-09T15:22:34.450Z,26.02
2024-05-09T15:27:26.895Z,25.65
2024-05-09T15:32:19.458Z,26.77
2024-05-09T15:37:12.466Z,26.13
2024-05-09T15:42:05.165Z,24.92
2024-05-09T15:46:57.750Z,24.98
2024-05-09T15:51:50.436Z,26.13
2024-05-09T15:56:47.406Z,25.95
2024-05-09T16:01:40.148Z,23.92
2024-05-09T16:06:33.941Z,24.15
2024-05-09T16:11:27.711Z,23.88
2024-05-09T16:16:20.289Z,23.95
2024-05-09T16:21:12.786Z,23.88
2024-05-09T16:26:06.407Z,20.58
2024-05-09T16:31:01.455Z,20.93
2024-05-09T16:35:54.036Z,20.27
2024-05-09T16:40:46.604Z,20.33
2024-05-09T16:45:40.960Z,19.70
2024-05-09T16:50:35.353Z,19.50
2024-05-09T16:55:28.563Z,19.77
2024-05-09T17:00:31.248Z,19.80
2024-05-09T17:05:32.100Z,18.23
2024-05-09T17:10:31.328Z,20.55
2024-05-09T17:15:25.837Z,18.77
2024-05-09T17:20:28.917Z,18.67
2024-05-09T17:25:25.890Z,18.07
2024-05-09T17:30:28.301Z,19.00
2024-05-09T17:35:25.060Z,19.77
2024-05-09T17:40:26.942Z,19.55
2024-05-09T17:45:23.617Z,17.58
2024-05-09T17:50:23.764Z,20.10
2024-05-09T17:55:20.250Z,19.83
2024-05-09T18:00:17.337Z,18.67
2024-05-09T18:05:12.318Z,17.57
2024-05-09T18:10:10.145Z,18.48
2024-05-09T18:15:08.283Z,18.73
2024-05-09T18:20:00.751Z,18.13
2024-05-09T18:24:53.347Z,17.08
2024-05-09T18:29:45.850Z,18.52
2024-05-09T18:34:38.364Z,16.52
2024-05-09T18:39:30.988Z,17.67
2024-05-09T18:44:23.540Z,17.25
2024-05-09T18:49:16.294Z,19.83
2024-05-09T18:54:08.958Z,19.60
2024-05-09T18:59:01.482Z,21.55
2024-05-09T19:03:54.073Z,23.38
2024-05-09T19:08:46.529Z,20.10
2024-05-09T19:13:38.899Z,22.80
2024-05-09T19:18:31.638Z,19.73
2024-05-09T19:23:24.203Z,19.60
2024-05-09T19:28:16.686Z,18.83
2024-05-09T19:33:11.886Z,17.40
2024-05-09T19:38:05.755Z,17.33
2024-05-09T19:42:58.236Z,17.77
2024-05-09T19:47:51.229Z,17.83
2024-05-09T19:52:43.894Z,18.13
2024-05-09T19:57:36.247Z,17.93
2024-05-09T20:02:31.410Z,17.60
2024-05-09T20:07:23.977Z,17.73
2024-05-09T20:12:16.553Z,17.80
2024-05-09T20:17:08.913Z,16.05
2024-05-09T20:22:01.611Z,13.55
2024-05-09T20:26:54.065Z,13.73
2024-05-09T20:31:46.617Z,14.10
2024-05-09T20:36:39.175Z,13.98
2024-05-09T20:41:33.596Z,14.10
2024-05-09T20:46:26.510Z,13.80
2024-05-09T20:51:18.978Z,14.75
2024-05-09T20:56:11.430Z,13.73
2024-05-09T21:01:03.981Z,13.45
2024-05-09T21:05:56.609Z,14.07
2024-05-09T21:10:49.448Z,15.15
2024-05-09T21:15:42.002Z,15.07
2024-05-09T21:20:35.178Z,15.68
2024-05-09T21:25:28.010Z,15.13
2024-05-09T21:30:31.564Z,17.67
2024-05-09T21:35:32.709Z,15.93
2024-05-09T21:40:31.632Z,18.20
2024-05-09T21:45:27.426Z,18.58
2024-05-09T21:50:27.505Z,18.67
2024-05-09T21:55:24.531Z,18.40
2024-05-09T22:00:28.557Z,20.58
2024-05-09T22:05:27.880Z,21.17
2024-05-09T22:10:26.465Z,20.17
2024-05-09T22:15:24.657Z,22.27
2024-05-09T22:20:25.063Z,21.38
2024-05-09T22:25:21.804Z,22.35
2024-05-09T22:30:21.268Z,21.05
2024-05-09T22:35:19.741Z,22.80
2024-05-09T22:40:20.694Z,22.38
2024-05-09T22:45:21.080Z,23.73
2024-05-09T22:50:18.603Z,23.85
2024-05-09T22:55:21.435Z,22.93
2024-05-09T23:00:16.061Z,22.67
2024-05-09T23:05:09.026Z,24.35
2024-05-09T23:10:01.792Z,23.25
2024-05-09T23:14:54.407Z,25.02
2024-05-09T23:19:46.832Z,25.50
2024-05-09T23:24:39.760Z,24.88
2024-05-09T23:29:32.327Z,27.00
2024-05-09T23:34:24.903Z,25.10
2024-05-09T23:39:19.120Z,28.83
2024-05-09T23:44:11.652Z,28.67
2024-05-09T23:49:04.235Z,27.33
2024-05-09T23:53:56.790Z,27.80
2024-05-09T23:58:49.377Z,27.52
